sensor_id;sensor_type;location;lat;lon;timestamp;temperature;humidity
55004;DHT22;40900;52.710;6.438;2023-02-05T00:02:16;5.30;99.90
55004;DHT22;40900;52.710;6.438;2023-02-05T00:04:42;5.30;99.90
55004;DHT22;40900;52.710;6.438;2023-02-05T00:07:08;5.40;99.90
55004;DHT22;40900;52.710;6.438;2023-02-05T00:09:34;5.40;99.90
55004;DHT22;40900;52.710;6.438;2023-02-05T00:12:01;5.30;99.90
55004;DHT22;40900;52.710;6.438;2023-02-05T00:14:27;5.30;99.90
55004;DHT22;40900;52.710;6.438;2023-02-05T00:16:53;5.30;99.90
55004;DHT22;40900;52.710;6.438;2023-02-05T00:19:18;5.30;99.90
55004;DHT22;40900;52.710;6.438;2023-02-05T00:21:44;5.30;99.90
55004;DHT22;40900;52.710;6.438;2023-02-05T00:24:10;5.30;99.90
55004;DHT22;40900;52.710;6.438;2023-02-05T00:26:37;5.30;99.90
55004;DHT22;40900;52.710;6.438;2023-02-05T00:29:03;5.40;99.90
55004;DHT22;40900;52.710;6.438;2023-02-05T00:31:29;5.40;99.90
55004;DHT22;40900;52.710;6.438;2023-02-05T00:33:56;5.40;99.90
55004;DHT22;40900;52.710;6.438;2023-02-05T00:36:22;5.40;99.90
55004;DHT22;40900;52.710;6.438;2023-02-05T00:38:49;5.40;99.90
55004;DHT22;40900;52.710;6.438;2023-02-05T00:41:15;5.50;99.90
55004;DHT22;40900;52.710;6.438;2023-02-05T00:43:41;5.50;99.90
55004;DHT22;40900;52.710;6.438;2023-02-05T00:46:09;5.50;99.90
55004;DHT22;40900;52.710;6.438;2023-02-05T00:48:35;5.50;99.90
55004;DHT22;40900;52.710;6.438;2023-02-05T00:51:01;5.60;99.90
55004;DHT22;40900;52.710;6.438;2023-02-05T00:53:26;5.50;99.90
55004;DHT22;40900;52.710;6.438;2023-02-05T00:55:52;5.60;99.90
55004;DHT22;40900;52.710;6.438;2023-02-05T00:58:18;5.60;99.90
55004;DHT22;40900;52.710;6.438;2023-02-05T01:00:44;5.60;99.90
55004;DHT22;40900;52.710;6.438;2023-02-05T01:03:10;5.60;99.90
55004;DHT22;40900;52.710;6.438;2023-02-05T01:05:37;5.60;99.90
55004;DHT22;40900;52.710;6.438;2023-02-05T01:08:05;5.60;99.90
55004;DHT22;40900;52.710;6.438;2023-02-05T01:10:31;5.70;99.90
55004;DHT22;40900;52.710;6.438;2023-02-05T01:12:57;5.70;99.90
55004;DHT22;40900;52.710;6.438;2023-02-05T01:15:23;5.70;99.90
55004;DHT22;40900;52.710;6.438;2023-02-05T01:17:49;5.70;99.90
55004;DHT22;40900;52.710;6.438;2023-02-05T01:20:15;5.60;99.90
55004;DHT22;40900;52.710;6.438;2023-02-05T01:22:41;5.70;99.90
55004;DHT22;40900;52.710;6.438;2023-02-05T01:25:07;5.70;99.90
55004;DHT22;40900;52.710;6.438;2023-02-05T01:27:34;5.70;99.90
55004;DHT22;40900;52.710;6.438;2023-02-05T01:30:00;5.70;99.90
55004;DHT22;40900;52.710;6.438;2023-02-05T01:32:27;5.70;99.90
55004;DHT22;40900;52.710;6.438;2023-02-05T01:34:52;5.70;99.90
55004;DHT22;40900;52.710;6.438;2023-02-05T01:37:18;5.70;99.90
55004;DHT22;40900;52.710;6.438;2023-02-05T01:39:44;5.70;99.90
55004;DHT22;40900;52.710;6.438;2023-02-05T01:42:17;5.70;99.90
55004;DHT22;40900;52.710;6.438;2023-02-05T01:44:43;5.70;99.90
55004;DHT22;40900;52.710;6.438;2023-02-05T01:47:09;5.70;99.90
55004;DHT22;40900;52.710;6.438;2023-02-05T01:49:41;5.70;99.90
55004;DHT22;40900;52.710;6.438;2023-02-05T01:52:15;5.70;99.90
55004;DHT22;40900;52.710;6.438;2023-02-05T01:54:44;5.70;99.90
55004;DHT22;40900;52.710;6.438;2023-02-05T01:57:17;5.70;99.90
55004;DHT22;40900;52.710;6.438;2023-02-05T01:59:44;5.70;99.90
55004;DHT22;40900;52.710;6.438;2023-02-05T02:02:10;5.70;99.90
55004;DHT22;40900;52.710;6.438;2023-02-05T02:04:42;5.60;99.90
55004;DHT22;40900;52.710;6.438;2023-02-05T02:07:11;5.70;99.90
55004;DHT22;40900;52.710;6.438;2023-02-05T02:09:39;5.70;99.90
55004;DHT22;40900;52.710;6.438;2023-02-05T02:12:07;5.70;99.90
55004;DHT22;40900;52.710;6.438;2023-02-05T02:14:35;5.70;99.90
55004;DHT22;40900;52.710;6.438;2023-02-05T02:17:02;5.70;99.90
55004;DHT22;40900;52.710;6.438;2023-02-05T02:20:03;5.70;99.90
55004;DHT22;40900;52.710;6.438;2023-02-05T02:28:25;5.70;99.90
55004;DHT22;40900;52.710;6.438;2023-02-05T02:31:10;5.70;99.90
55004;DHT22;40900;52.710;6.438;2023-02-05T02:33:56;5.70;99.90
55004;DHT22;40900;52.710;6.438;2023-02-05T02:36:39;5.70;99.90
55004;DHT22;40900;52.710;6.438;2023-02-05T02:39:12;5.70;99.90
55004;DHT22;40900;52.710;6.438;2023-02-05T02:41:52;5.70;99.90
55004;DHT22;40900;52.710;6.438;2023-02-05T02:44:35;5.70;99.90
55004;DHT22;40900;52.710;6.438;2023-02-05T02:47:22;5.80;99.90
55004;DHT22;40900;52.710;6.438;2023-02-05T02:49:56;5.80;99.90
55004;DHT22;40900;52.710;6.438;2023-02-05T02:52:24;5.80;99.90
55004;DHT22;40900;52.710;6.438;2023-02-05T02:54:54;5.70;99.90
55004;DHT22;40900;52.710;6.438;2023-02-05T02:57:22;5.70;99.90
55004;DHT22;40900;52.710;6.438;2023-02-05T02:59:52;5.80;99.90
55004;DHT22;40900;52.710;6.438;2023-02-05T03:02:20;5.70;99.90
55004;DHT22;40900;52.710;6.438;2023-02-05T03:04:54;5.80;99.90
55004;DHT22;40900;52.710;6.438;2023-02-05T03:07:30;5.70;99.90
55004;DHT22;40900;52.710;6.438;2023-02-05T03:10:22;5.70;99.90
55004;DHT22;40900;52.710;6.438;2023-02-05T03:12:50;5.80;99.90
55004;DHT22;40900;52.710;6.438;2023-02-05T03:15:15;5.70;99.90
55004;DHT22;40900;52.710;6.438;2023-02-05T03:17:41;5.80;99.90
55004;DHT22;40900;52.710;6.438;2023-02-05T03:20:15;5.80;99.90
55004;DHT22;40900;52.710;6.438;2023-02-05T03:22:43;5.80;99.90
55004;DHT22;40900;52.710;6.438;2023-02-05T03:25:09;5.80;99.90
55004;DHT22;40900;52.710;6.438;2023-02-05T03:27:35;5.80;99.90
55004;DHT22;40900;52.710;6.438;2023-02-05T03:30:02;5.80;99.90
55004;DHT22;40900;52.710;6.438;2023-02-05T03:35:12;5.80;99.90
55004;DHT22;40900;52.710;6.438;2023-02-05T03:48:49;5.90;99.90
55004;DHT22;40900;52.710;6.438;2023-02-05T03:54:12;5.90;99.90
55004;DHT22;40900;52.710;6.438;2023-02-05T03:56:58;5.90;99.90
55004;DHT22;40900;52.710;6.438;2023-02-05T03:59:26;6.00;99.90
55004;DHT22;40900;52.710;6.438;2023-02-05T04:01:53;5.90;99.90
55004;DHT22;40900;52.710;6.438;2023-02-05T04:04:20;6.00;99.90
55004;DHT22;40900;52.710;6.438;2023-02-05T04:06:47;6.00;99.90
55004;DHT22;40900;52.710;6.438;2023-02-05T04:09:14;6.00;99.90
55004;DHT22;40900;52.710;6.438;2023-02-05T04:11:39;6.00;99.90
55004;DHT22;40900;52.710;6.438;2023-02-05T04:14:05;6.00;99.90
55004;DHT22;40900;52.710;6.438;2023-02-05T04:16:31;6.00;99.90
55004;DHT22;40900;52.710;6.438;2023-02-05T04:18:56;6.00;99.90
55004;DHT22;40900;52.710;6.438;2023-02-05T04:21:22;6.00;99.90
55004;DHT22;40900;52.710;6.438;2023-02-05T04:23:48;6.00;99.90
55004;DHT22;40900;52.710;6.438;2023-02-05T04:26:13;6.00;99.90
55004;DHT22;40900;52.710;6.438;2023-02-05T04:28:39;6.10;99.90
55004;DHT22;40900;52.710;6.438;2023-02-05T04:31:09;6.10;99.90
55004;DHT22;40900;52.710;6.438;2023-02-05T04:33:35;6.10;99.90
55004;DHT22;40900;52.710;6.438;2023-02-05T04:36:01;6.10;99.90
55004;DHT22;40900;52.710;6.438;2023-02-05T04:38:27;6.10;99.90
55004;DHT22;40900;52.710;6.438;2023-02-05T04:40:53;6.10;99.90
55004;DHT22;40900;52.710;6.438;2023-02-05T04:43:19;6.10;99.90
55004;DHT22;40900;52.710;6.438;2023-02-05T04:45:44;6.20;99.90
55004;DHT22;40900;52.710;6.438;2023-02-05T04:48:10;6.20;99.90
55004;DHT22;40900;52.710;6.438;2023-02-05T04:50:38;6.20;99.90
55004;DHT22;40900;52.710;6.438;2023-02-05T04:53:04;6.20;99.90
55004;DHT22;40900;52.710;6.438;2023-02-05T04:55:30;6.20;99.90
55004;DHT22;40900;52.710;6.438;2023-02-05T04:57:56;6.30;99.90
55004;DHT22;40900;52.710;6.438;2023-02-05T05:00:22;6.10;99.90
55004;DHT22;40900;52.710;6.438;2023-02-05T05:02:48;6.20;99.90
55004;DHT22;40900;52.710;6.438;2023-02-05T05:05:14;6.10;99.90
55004;DHT22;40900;52.710;6.438;2023-02-05T05:07:40;6.30;99.90
55004;DHT22;40900;52.710;6.438;2023-02-05T05:10:06;6.30;99.90
55004;DHT22;40900;52.710;6.438;2023-02-05T05:12:33;6.30;99.90
55004;DHT22;40900;52.710;6.438;2023-02-05T05:14:59;6.30;99.90
55004;DHT22;40900;52.710;6.438;2023-02-05T05:17:25;6.30;99.90
55004;DHT22;40900;52.710;6.438;2023-02-05T05:19:51;6.30;99.90
55004;DHT22;40900;52.710;6.438;2023-02-05T05:22:16;6.40;99.90
55004;DHT22;40900;52.710;6.438;2023-02-05T05:24:42;6.40;99.90
55004;DHT22;40900;52.710;6.438;2023-02-05T05:27:08;6.40;99.90
55004;DHT22;40900;52.710;6.438;2023-02-05T05:29:34;6.40;99.90
55004;DHT22;40900;52.710;6.438;2023-02-05T05:32:00;6.40;99.90
55004;DHT22;40900;52.710;6.438;2023-02-05T05:34:26;6.40;99.90
55004;DHT22;40900;52.710;6.438;2023-02-05T05:36:51;6.40;99.90
55004;DHT22;40900;52.710;6.438;2023-02-05T05:39:18;6.40;99.90
55004;DHT22;40900;52.710;6.438;2023-02-05T05:42:02;6.40;99.90
55004;DHT22;40900;52.710;6.438;2023-02-05T05:44:46;6.40;99.90
55004;DHT22;40900;52.710;6.438;2023-02-05T05:47:17;6.40;99.90
55004;DHT22;40900;52.710;6.438;2023-02-05T05:49:42;6.40;99.90
55004;DHT22;40900;52.710;6.438;2023-02-05T05:52:08;6.40;99.90
55004;DHT22;40900;52.710;6.438;2023-02-05T05:54:34;6.40;99.90
55004;DHT22;40900;52.710;6.438;2023-02-05T05:57:00;6.40;99.90
55004;DHT22;40900;52.710;6.438;2023-02-05T05:59:25;6.40;99.90
55004;DHT22;40900;52.710;6.438;2023-02-05T06:01:51;6.40;99.90
55004;DHT22;40900;52.710;6.438;2023-02-05T06:04:17;6.30;99.90
55004;DHT22;40900;52.710;6.438;2023-02-05T06:06:42;6.40;99.90
55004;DHT22;40900;52.710;6.438;2023-02-05T06:09:08;6.40;99.90
55004;DHT22;40900;52.710;6.438;2023-02-05T06:11:34;6.30;99.90
55004;DHT22;40900;52.710;6.438;2023-02-05T06:13:59;6.30;99.90
55004;DHT22;40900;52.710;6.438;2023-02-05T06:16:25;6.30;99.90
55004;DHT22;40900;52.710;6.438;2023-02-05T06:18:51;6.20;99.90
55004;DHT22;40900;52.710;6.438;2023-02-05T06:21:17;6.20;99.90
55004;DHT22;40900;52.710;6.438;2023-02-05T06:23:42;6.10;99.90
55004;DHT22;40900;52.710;6.438;2023-02-05T06:26:08;6.20;99.90
55004;DHT22;40900;52.710;6.438;2023-02-05T06:28:34;6.10;99.90
55004;DHT22;40900;52.710;6.438;2023-02-05T06:30:59;6.10;99.90
55004;DHT22;40900;52.710;6.438;2023-02-05T06:33:25;6.10;99.90
55004;DHT22;40900;52.710;6.438;2023-02-05T06:35:51;6.10;99.90
55004;DHT22;40900;52.710;6.438;2023-02-05T06:38:17;6.00;99.90
55004;DHT22;40900;52.710;6.438;2023-02-05T06:40:42;6.00;99.90
55004;DHT22;40900;52.710;6.438;2023-02-05T06:43:08;6.00;99.90
55004;DHT22;40900;52.710;6.438;2023-02-05T06:45:34;5.90;99.90
55004;DHT22;40900;52.710;6.438;2023-02-05T06:47:59;6.00;99.90
55004;DHT22;40900;52.710;6.438;2023-02-05T06:50:25;5.90;99.90
55004;DHT22;40900;52.710;6.438;2023-02-05T06:52:51;5.90;99.90
55004;DHT22;40900;52.710;6.438;2023-02-05T06:55:17;5.90;99.90
55004;DHT22;40900;52.710;6.438;2023-02-05T06:57:43;5.90;99.90
55004;DHT22;40900;52.710;6.438;2023-02-05T07:00:09;5.90;99.90
55004;DHT22;40900;52.710;6.438;2023-02-05T07:02:35;5.90;99.90
55004;DHT22;40900;52.710;6.438;2023-02-05T07:05:02;5.90;99.90
55004;DHT22;40900;52.710;6.438;2023-02-05T07:07:27;5.90;99.90
55004;DHT22;40900;52.710;6.438;2023-02-05T07:09:53;5.90;99.90
55004;DHT22;40900;52.710;6.438;2023-02-05T07:12:19;5.90;99.90
55004;DHT22;40900;52.710;6.438;2023-02-05T07:14:45;5.90;99.90
55004;DHT22;40900;52.710;6.438;2023-02-05T07:17:10;5.80;99.90
55004;DHT22;40900;52.710;6.438;2023-02-05T07:19:36;5.80;99.90
55004;DHT22;40900;52.710;6.438;2023-02-05T07:22:03;5.80;99.90
55004;DHT22;40900;52.710;6.438;2023-02-05T07:24:29;5.80;99.90
55004;DHT22;40900;52.710;6.438;2023-02-05T07:26:55;5.90;99.90
55004;DHT22;40900;52.710;6.438;2023-02-05T07:29:21;5.90;99.90
55004;DHT22;40900;52.710;6.438;2023-02-05T07:31:50;5.80;99.90
55004;DHT22;40900;52.710;6.438;2023-02-05T07:34:17;5.80;99.90
55004;DHT22;40900;52.710;6.438;2023-02-05T07:36:43;5.80;99.90
55004;DHT22;40900;52.710;6.438;2023-02-05T07:39:08;5.80;99.90
55004;DHT22;40900;52.710;6.438;2023-02-05T07:41:34;5.90;99.90
55004;DHT22;40900;52.710;6.438;2023-02-05T07:44:00;5.80;99.90
55004;DHT22;40900;52.710;6.438;2023-02-05T07:46:26;5.90;99.90
55004;DHT22;40900;52.710;6.438;2023-02-05T07:48:53;5.90;99.90
55004;DHT22;40900;52.710;6.438;2023-02-05T07:51:21;5.90;99.90
55004;DHT22;40900;52.710;6.438;2023-02-05T07:53:47;5.90;99.90
55004;DHT22;40900;52.710;6.438;2023-02-05T07:56:13;6.00;99.90
55004;DHT22;40900;52.710;6.438;2023-02-05T07:58:40;6.00;99.90
55004;DHT22;40900;52.710;6.438;2023-02-05T08:01:06;6.00;99.90
55004;DHT22;40900;52.710;6.438;2023-02-05T08:03:32;6.10;99.90
55004;DHT22;40900;52.710;6.438;2023-02-05T08:05:58;6.10;99.90
55004;DHT22;40900;52.710;6.438;2023-02-05T08:08:24;6.10;99.90
55004;DHT22;40900;52.710;6.438;2023-02-05T08:10:58;6.10;99.90
55004;DHT22;40900;52.710;6.438;2023-02-05T08:13:24;6.10;99.90
55004;DHT22;40900;52.710;6.438;2023-02-05T08:15:50;6.10;99.90
55004;DHT22;40900;52.710;6.438;2023-02-05T08:18:16;6.10;99.90
55004;DHT22;40900;52.710;6.438;2023-02-05T08:20:43;6.10;99.90
55004;DHT22;40900;52.710;6.438;2023-02-05T08:23:09;6.20;99.90
55004;DHT22;40900;52.710;6.438;2023-02-05T08:25:35;6.20;99.90
55004;DHT22;40900;52.710;6.438;2023-02-05T08:28:02;6.20;99.90
55004;DHT22;40900;52.710;6.438;2023-02-05T08:30:28;6.20;99.90
55004;DHT22;40900;52.710;6.438;2023-02-05T08:32:53;6.20;99.90
55004;DHT22;40900;52.710;6.438;2023-02-05T08:35:19;6.20;99.90
55004;DHT22;40900;52.710;6.438;2023-02-05T08:37:45;6.20;99.90
55004;DHT22;40900;52.710;6.438;2023-02-05T08:40:11;6.20;99.90
55004;DHT22;40900;52.710;6.438;2023-02-05T08:42:37;6.20;99.90
55004;DHT22;40900;52.710;6.438;2023-02-05T08:45:03;6.30;99.90
55004;DHT22;40900;52.710;6.438;2023-02-05T08:47:34;6.20;99.90
55004;DHT22;40900;52.710;6.438;2023-02-05T08:49:59;6.20;99.90
55004;DHT22;40900;52.710;6.438;2023-02-05T08:52:25;6.20;99.90
55004;DHT22;40900;52.710;6.438;2023-02-05T08:54:51;6.20;99.90
55004;DHT22;40900;52.710;6.438;2023-02-05T08:57:16;6.30;99.90
55004;DHT22;40900;52.710;6.438;2023-02-05T08:59:42;6.20;99.90
55004;DHT22;40900;52.710;6.438;2023-02-05T09:02:13;6.20;99.90
55004;DHT22;40900;52.710;6.438;2023-02-05T09:04:39;6.20;99.90
55004;DHT22;40900;52.710;6.438;2023-02-05T09:07:04;6.20;99.90
55004;DHT22;40900;52.710;6.438;2023-02-05T09:09:31;6.20;99.90
55004;DHT22;40900;52.710;6.438;2023-02-05T09:11:59;6.30;99.90
55004;DHT22;40900;52.710;6.438;2023-02-05T09:14:25;6.30;99.90
55004;DHT22;40900;52.710;6.438;2023-02-05T09:16:51;6.30;99.90
55004;DHT22;40900;52.710;6.438;2023-02-05T09:19:17;6.30;99.90
55004;DHT22;40900;52.710;6.438;2023-02-05T09:21:42;6.40;99.90
55004;DHT22;40900;52.710;6.438;2023-02-05T09:24:08;6.40;99.90
55004;DHT22;40900;52.710;6.438;2023-02-05T09:26:34;6.40;99.90
55004;DHT22;40900;52.710;6.438;2023-02-05T09:29:02;6.40;99.90
55004;DHT22;40900;52.710;6.438;2023-02-05T09:31:28;6.40;99.90
55004;DHT22;40900;52.710;6.438;2023-02-05T09:33:54;6.50;99.90
55004;DHT22;40900;52.710;6.438;2023-02-05T09:36:22;6.50;99.90
55004;DHT22;40900;52.710;6.438;2023-02-05T09:38:48;6.50;99.90
55004;DHT22;40900;52.710;6.438;2023-02-05T09:49:29;6.60;99.90
55004;DHT22;40900;52.710;6.438;2023-02-05T09:52:15;6.60;99.90
55004;DHT22;40900;52.710;6.438;2023-02-05T09:54:43;6.60;99.90
55004;DHT22;40900;52.710;6.438;2023-02-05T09:57:18;6.70;99.90
55004;DHT22;40900;52.710;6.438;2023-02-05T09:59:45;6.70;99.90
55004;DHT22;40900;52.710;6.438;2023-02-05T10:04:43;6.70;99.90
55004;DHT22;40900;52.710;6.438;2023-02-05T10:07:41;6.70;99.90
55004;DHT22;40900;52.710;6.438;2023-02-05T10:10:30;6.70;99.90
55004;DHT22;40900;52.710;6.438;2023-02-05T10:35:23;11.60;99.90
55004;DHT22;40900;52.710;6.438;2023-02-05T10:37:54;11.40;99.90
55004;DHT22;40900;52.710;6.438;2023-02-05T10:40:33;10.90;99.90
55004;DHT22;40900;52.710;6.438;2023-02-05T10:43:16;10.40;99.90
55004;DHT22;40900;52.710;6.438;2023-02-05T10:45:42;10.00;99.90
55004;DHT22;40900;52.710;6.438;2023-02-05T10:51:09;9.60;99.90
55004;DHT22;40900;52.710;6.438;2023-02-05T10:53:38;9.30;99.90
55004;DHT22;40900;52.710;6.438;2023-02-05T10:56:05;8.90;99.90
55004;DHT22;40900;52.710;6.438;2023-02-05T10:58:59;9.00;99.90
55004;DHT22;40900;52.710;6.438;2023-02-05T11:01:31;10.20;99.90
55004;DHT22;40900;52.710;6.438;2023-02-05T11:04:24;10.60;99.90
55004;DHT22;40900;52.710;6.438;2023-02-05T11:06:52;9.90;99.90
55004;DHT22;40900;52.710;6.438;2023-02-05T11:09:29;9.50;99.90
55004;DHT22;40900;52.710;6.438;2023-02-05T11:12:03;9.20;99.90
55004;DHT22;40900;52.710;6.438;2023-02-05T11:14:34;9.00;99.90
55004;DHT22;40900;52.710;6.438;2023-02-05T11:19:54;10.70;99.90
55004;DHT22;40900;52.710;6.438;2023-02-05T11:22:29;10.90;99.90
55004;DHT22;40900;52.710;6.438;2023-02-05T11:25:15;10.20;99.90
55004;DHT22;40900;52.710;6.438;2023-02-05T11:27:51;9.70;99.90
55004;DHT22;40900;52.710;6.438;2023-02-05T11:32:50;9.50;99.90
55004;DHT22;40900;52.710;6.438;2023-02-05T11:35:36;9.30;99.90
55004;DHT22;40900;52.710;6.438;2023-02-05T11:38:06;9.50;99.90
55004;DHT22;40900;52.710;6.438;2023-02-05T11:40:33;9.80;99.90
55004;DHT22;40900;52.710;6.438;2023-02-05T11:43:02;9.90;99.90
55004;DHT22;40900;52.710;6.438;2023-02-05T11:45:30;9.90;99.90
55004;DHT22;40900;52.710;6.438;2023-02-05T11:47:59;10.10;99.90
55004;DHT22;40900;52.710;6.438;2023-02-05T11:50:27;9.90;99.90
55004;DHT22;40900;52.710;6.438;2023-02-05T11:52:55;9.90;99.90
55004;DHT22;40900;52.710;6.438;2023-02-05T11:55:32;9.80;99.90
55004;DHT22;40900;52.710;6.438;2023-02-05T11:58:01;9.60;99.90
55004;DHT22;40900;52.710;6.438;2023-02-05T12:00:28;9.10;99.90
55004;DHT22;40900;52.710;6.438;2023-02-05T12:03:16;9.20;99.90
55004;DHT22;40900;52.710;6.438;2023-02-05T12:06:00;8.90;99.90
55004;DHT22;40900;52.710;6.438;2023-02-05T12:08:40;9.00;99.90
55004;DHT22;40900;52.710;6.438;2023-02-05T12:11:11;8.80;99.90
55004;DHT22;40900;52.710;6.438;2023-02-05T12:19:21;8.70;99.90
55004;DHT22;40900;52.710;6.438;2023-02-05T12:22:39;8.80;99.90
55004;DHT22;40900;52.710;6.438;2023-02-05T12:36:00;8.60;99.90
55004;DHT22;40900;52.710;6.438;2023-02-05T12:41:32;8.70;99.90
55004;DHT22;40900;52.710;6.438;2023-02-05T12:57:43;9.00;99.90
55004;DHT22;40900;52.710;6.438;2023-02-05T13:00:23;8.90;99.90
55004;DHT22;40900;52.710;6.438;2023-02-05T13:03:15;9.00;99.90
55004;DHT22;40900;52.710;6.438;2023-02-05T13:06:00;8.90;99.90
55004;DHT22;40900;52.710;6.438;2023-02-05T13:08:41;8.90;99.90
55004;DHT22;40900;52.710;6.438;2023-02-05T13:11:22;8.90;99.90
55004;DHT22;40900;52.710;6.438;2023-02-05T13:14:00;8.90;99.90
55004;DHT22;40900;52.710;6.438;2023-02-05T13:16:52;8.90;99.90
55004;DHT22;40900;52.710;6.438;2023-02-05T13:19:36;8.90;99.90
55004;DHT22;40900;52.710;6.438;2023-02-05T13:25:00;8.90;99.90
55004;DHT22;40900;52.710;6.438;2023-02-05T13:27:51;8.90;99.90
55004;DHT22;40900;52.710;6.438;2023-02-05T13:30:46;8.90;99.90
55004;DHT22;40900;52.710;6.438;2023-02-05T13:33:15;8.90;99.90
55004;DHT22;40900;52.710;6.438;2023-02-05T14:00:28;8.90;99.90
55004;DHT22;40900;52.710;6.438;2023-02-05T14:02:55;8.80;99.90
55004;DHT22;40900;52.710;6.438;2023-02-05T14:05:33;8.80;99.90
55004;DHT22;40900;52.710;6.438;2023-02-05T14:08:00;8.80;99.90
55004;DHT22;40900;52.710;6.438;2023-02-05T14:10:38;8.70;99.90
55004;DHT22;40900;52.710;6.438;2023-02-05T14:15:44;8.70;99.90
55004;DHT22;40900;52.710;6.438;2023-02-05T14:20:55;8.70;99.90
55004;DHT22;40900;52.710;6.438;2023-02-05T14:26:14;8.60;99.90
55004;DHT22;40900;52.710;6.438;2023-02-05T14:28:46;8.60;99.90
55004;DHT22;40900;52.710;6.438;2023-02-05T14:31:50;8.60;99.90
55004;DHT22;40900;52.710;6.438;2023-02-05T14:34:43;8.50;99.90
55004;DHT22;40900;52.710;6.438;2023-02-05T14:37:31;8.50;99.90
55004;DHT22;40900;52.710;6.438;2023-02-05T14:39:59;8.50;99.90
55004;DHT22;40900;52.710;6.438;2023-02-05T14:42:35;8.50;99.90
55004;DHT22;40900;52.710;6.438;2023-02-05T14:45:02;8.50;99.90
55004;DHT22;40900;52.710;6.438;2023-02-05T14:47:30;8.40;99.90
55004;DHT22;40900;52.710;6.438;2023-02-05T14:50:09;8.40;99.90
55004;DHT22;40900;52.710;6.438;2023-02-05T14:52:43;8.40;99.90
55004;DHT22;40900;52.710;6.438;2023-02-05T15:00:30;8.40;99.90
55004;DHT22;40900;52.710;6.438;2023-02-05T15:08:20;8.40;99.90
55004;DHT22;40900;52.710;6.438;2023-02-05T15:13:37;8.30;99.90
55004;DHT22;40900;52.710;6.438;2023-02-05T15:18:57;8.10;99.90
55004;DHT22;40900;52.710;6.438;2023-02-05T15:21:37;8.10;99.90
55004;DHT22;40900;52.710;6.438;2023-02-05T15:24:20;8.00;99.90
55004;DHT22;40900;52.710;6.438;2023-02-05T15:26:56;8.00;99.90
55004;DHT22;40900;52.710;6.438;2023-02-05T15:29:45;8.00;99.90
55004;DHT22;40900;52.710;6.438;2023-02-05T15:32:38;8.00;99.90
55004;DHT22;40900;52.710;6.438;2023-02-05T15:35:15;8.00;99.90
55004;DHT22;40900;52.710;6.438;2023-02-05T15:37:54;7.90;99.90
55004;DHT22;40900;52.710;6.438;2023-02-05T15:40:33;7.90;99.90
55004;DHT22;40900;52.710;6.438;2023-02-05T15:43:15;7.80;99.90
55004;DHT22;40900;52.710;6.438;2023-02-05T15:45:42;7.80;99.90
55004;DHT22;40900;52.710;6.438;2023-02-05T15:48:11;7.80;99.90
55004;DHT22;40900;52.710;6.438;2023-02-05T15:53:38;7.90;99.90
55004;DHT22;40900;52.710;6.438;2023-02-05T15:56:16;7.80;99.90
55004;DHT22;40900;52.710;6.438;2023-02-05T15:59:14;7.80;99.90
55004;DHT22;40900;52.710;6.438;2023-02-05T16:02:02;7.70;99.90
55004;DHT22;40900;52.710;6.438;2023-02-05T16:04:35;7.70;99.90
55004;DHT22;40900;52.710;6.438;2023-02-05T16:07:15;7.70;99.90
55004;DHT22;40900;52.710;6.438;2023-02-05T16:09:45;7.60;99.90
55004;DHT22;40900;52.710;6.438;2023-02-05T16:12:12;7.60;99.90
55004;DHT22;40900;52.710;6.438;2023-02-05T16:14:38;7.60;99.90
55004;DHT22;40900;52.710;6.438;2023-02-05T16:17:06;7.50;99.90
55004;DHT22;40900;52.710;6.438;2023-02-05T16:19:53;7.50;99.90
55004;DHT22;40900;52.710;6.438;2023-02-05T16:22:34;7.40;99.90
55004;DHT22;40900;52.710;6.438;2023-02-05T16:25:05;7.40;99.90
55004;DHT22;40900;52.710;6.438;2023-02-05T16:27:41;7.30;99.90
55004;DHT22;40900;52.710;6.438;2023-02-05T16:30:17;7.30;99.90
55004;DHT22;40900;52.710;6.438;2023-02-05T16:32:45;7.30;99.90
55004;DHT22;40900;52.710;6.438;2023-02-05T16:35:26;7.30;99.90
55004;DHT22;40900;52.710;6.438;2023-02-05T16:37:53;7.30;99.90
55004;DHT22;40900;52.710;6.438;2023-02-05T16:40:35;7.20;99.90
55004;DHT22;40900;52.710;6.438;2023-02-05T16:43:34;7.20;99.90
55004;DHT22;40900;52.710;6.438;2023-02-05T16:46:23;7.20;99.90
55004;DHT22;40900;52.710;6.438;2023-02-05T16:48:52;7.10;99.90
55004;DHT22;40900;52.710;6.438;2023-02-05T16:57:15;7.10;99.90
55004;DHT22;40900;52.710;6.438;2023-02-05T17:00:00;7.10;99.90
55004;DHT22;40900;52.710;6.438;2023-02-05T17:04:56;7.00;99.90
55004;DHT22;40900;52.710;6.438;2023-02-05T17:07:23;7.00;99.90
55004;DHT22;40900;52.710;6.438;2023-02-05T17:09:49;7.00;99.90
55004;DHT22;40900;52.710;6.438;2023-02-05T17:15:02;6.90;99.90
55004;DHT22;40900;52.710;6.438;2023-02-05T17:17:30;6.80;99.90
55004;DHT22;40900;52.710;6.438;2023-02-05T17:22:34;6.70;99.90
55004;DHT22;40900;52.710;6.438;2023-02-05T17:25:00;6.70;99.90
55004;DHT22;40900;52.710;6.438;2023-02-05T17:27:33;6.70;99.90
55004;DHT22;40900;52.710;6.438;2023-02-05T17:30:00;6.70;99.90
55004;DHT22;40900;52.710;6.438;2023-02-05T17:32:26;6.60;99.90
55004;DHT22;40900;52.710;6.438;2023-02-05T17:34:53;6.50;99.90
55004;DHT22;40900;52.710;6.438;2023-02-05T17:37:19;6.50;99.90
55004;DHT22;40900;52.710;6.438;2023-02-05T17:39:45;6.50;99.90
55004;DHT22;40900;52.710;6.438;2023-02-05T17:42:37;6.40;99.90
55004;DHT22;40900;52.710;6.438;2023-02-05T17:45:24;6.40;99.90
55004;DHT22;40900;52.710;6.438;2023-02-05T17:47:51;6.40;99.90
55004;DHT22;40900;52.710;6.438;2023-02-05T17:50:17;6.40;99.90
55004;DHT22;40900;52.710;6.438;2023-02-05T17:52:44;6.40;99.90
55004;DHT22;40900;52.710;6.438;2023-02-05T17:55:15;6.30;99.90
55004;DHT22;40900;52.710;6.438;2023-02-05T17:57:41;6.30;99.90
55004;DHT22;40900;52.710;6.438;2023-02-05T18:00:28;6.30;99.90
55004;DHT22;40900;52.710;6.438;2023-02-05T18:02:56;6.20;99.90
55004;DHT22;40900;52.710;6.438;2023-02-05T18:05:22;6.20;99.90
55004;DHT22;40900;52.710;6.438;2023-02-05T18:07:53;6.20;99.90
55004;DHT22;40900;52.710;6.438;2023-02-05T18:10:28;6.10;99.90
55004;DHT22;40900;52.710;6.438;2023-02-05T18:12:56;6.10;99.90
55004;DHT22;40900;52.710;6.438;2023-02-05T18:15:23;6.10;99.90
55004;DHT22;40900;52.710;6.438;2023-02-05T18:17:50;6.00;99.90
55004;DHT22;40900;52.710;6.438;2023-02-05T18:20:17;6.00;99.90
55004;DHT22;40900;52.710;6.438;2023-02-05T18:22:44;6.00;99.90
55004;DHT22;40900;52.710;6.438;2023-02-05T18:25:10;6.00;99.90
55004;DHT22;40900;52.710;6.438;2023-02-05T18:27:36;6.00;99.90
55004;DHT22;40900;52.710;6.438;2023-02-05T18:30:03;5.90;99.90
55004;DHT22;40900;52.710;6.438;2023-02-05T18:32:29;5.90;99.90
55004;DHT22;40900;52.710;6.438;2023-02-05T18:34:55;5.80;99.90
55004;DHT22;40900;52.710;6.438;2023-02-05T18:37:20;5.80;99.90
55004;DHT22;40900;52.710;6.438;2023-02-05T18:39:46;5.80;99.90
55004;DHT22;40900;52.710;6.438;2023-02-05T18:42:15;5.80;99.90
55004;DHT22;40900;52.710;6.438;2023-02-05T18:44:40;5.70;99.90
55004;DHT22;40900;52.710;6.438;2023-02-05T18:47:06;5.70;99.90
55004;DHT22;40900;52.710;6.438;2023-02-05T18:49:33;5.60;99.90
55004;DHT22;40900;52.710;6.438;2023-02-05T18:51:59;5.60;99.90